»·PEaware :: N531HY KPSP-KHII

N531HY :: KPSP-KHII

FLIGHT INFORMATION

Flight Status: Arrived
Operator: Privately registered:
United States
More flights under this callsign
Pilot: Mitch M. (17881)
Aircraft: PIPER PA-46-500TP MALIBU MERIDIAN
(P46T)
More flights by this aircraft type
Origin: KPSP Palm Springs Intl
United States
Destination: KHII Lake Havasu City
United States
More flights between these airports :: More routes between these airports
Route: +DCT
File this flight plan on PilotEdge
Remarks:
Altitude:
(Current/Filed)
7,000ft
Speed:
(Current/Filed)
200kts
Departed: 24-Jan-18 08:48 AM
Arrived: 24-Jan-18 09:31 AM
Distance/Time
Traveled:
115nm/0:42
Distance/Time
To Go:
Arrived

Flight Plot

Page will automatically refresh every two minutes.

Flight plan parsing failed; only flown route is shown


Map Options




Map Legend


Flown Route
Filed Route
Departure Airport
Arrival Airport
Navaid (VOR, NDB)
Fix

Horizontal Profiles

Position Reports

Time Latitude Longitude Heading Altitude Ground
Speed
24-Jan-18 08:42 33.823170 -116.496701 54 428ft 0kts
24-Jan-18 08:43 33.823170 -116.496701 54 428ft 0kts
24-Jan-18 08:44 33.823170 -116.496701 54 428ft 0kts
24-Jan-18 08:45 33.823170 -116.496701 54 428ft 0kts
24-Jan-18 08:46 33.823170 -116.496701 54 428ft 0kts
24-Jan-18 08:47 33.823170 -116.496701 54 428ft 0kts
24-Jan-18 08:48 33.823182 -116.496679 59 428ft 0kts
24-Jan-18 08:49 33.823183 -116.496679 59 428ft 0kts
24-Jan-18 08:50 33.823247 -116.496775 224 428ft 0kts
24-Jan-18 08:51 33.823613 -116.498128 323 428ft 10kts
24-Jan-18 08:52 33.824738 -116.499425 227 428ft 4kts
24-Jan-18 08:53 33.824582 -116.499671 233 428ft 0kts
24-Jan-18 08:54 33.826439 -116.501901 323 428ft 55kts
24-Jan-18 08:55 33.849338 -116.519238 335 997ft 107kts
24-Jan-18 08:56 33.879220 -116.532406 6 2325ft 128kts
24-Jan-18 08:57 33.888362 -116.495451 101 3856ft 127kts
24-Jan-18 08:58 33.885841 -116.448724 88 5106ft 154kts
24-Jan-18 08:59 33.889718 -116.395300 94 6337ft 170kts
24-Jan-18 09:00 33.887567 -116.339365 86 6873ft 197kts
24-Jan-18 09:01 33.899468 -116.279751 84 6430ft 164kts
24-Jan-18 09:02 33.905748 -116.232850 49 6960ft 158kts
24-Jan-18 09:03 33.937946 -116.186960 58 7017ft 191kts
24-Jan-18 09:04 33.962460 -116.129568 67 7027ft 193kts
24-Jan-18 09:05 33.984077 -116.070769 68 7033ft 186kts
24-Jan-18 09:06 34.003840 -116.015151 69 7039ft 177kts
24-Jan-18 09:07 34.023265 -115.959917 69 7369ft 170kts
24-Jan-18 09:08 34.042549 -115.904749 69 7548ft 187kts
24-Jan-18 09:09 34.063248 -115.845653 69 7544ft 193kts
24-Jan-18 09:10 34.084189 -115.785875 69 7546ft 194kts
24-Jan-18 09:11 34.105126 -115.725760 69 7546ft 193kts
24-Jan-18 09:12 34.125975 -115.665849 69 7545ft 193kts
24-Jan-18 09:13 34.145538 -115.609473 69 7555ft 196kts
24-Jan-18 09:14 34.166995 -115.547887 70 7540ft 195kts
24-Jan-18 09:15 34.187895 -115.487088 69 7541ft 199kts
24-Jan-18 09:16 34.208942 -115.426205 69 7535ft 195kts
24-Jan-18 09:17 34.229815 -115.365678 69 7535ft 194kts
24-Jan-18 09:18 34.250536 -115.305447 69 7532ft 194kts
24-Jan-18 09:19 34.271266 -115.245110 70 7533ft 193kts
24-Jan-18 09:20 34.291859 -115.185004 70 7535ft 193kts
24-Jan-18 09:21 34.312466 -115.124756 70 7540ft 193kts
24-Jan-18 09:22 34.333017 -115.064642 70 7542ft 193kts
24-Jan-18 09:23 34.353532 -115.004475 70 7544ft 193kts
24-Jan-18 09:24 34.374065 -114.943985 70 7539ft 193kts
24-Jan-18 09:25 34.394451 -114.883887 71 7541ft 193kts
24-Jan-18 09:26 34.414815 -114.823748 71 7537ft 192kts
24-Jan-18 09:27 34.435193 -114.763492 70 7542ft 196kts
24-Jan-18 09:28 34.455721 -114.702590 71 7487ft 195kts
24-Jan-18 09:29 34.476246 -114.641584 71 7382ft 194kts
24-Jan-18 09:30 34.496562 -114.581256 71 7281ft 194kts
24-Jan-18 09:31 34.515714 -114.520623 74 5548ft 177kts
24-Jan-18 09:32 34.527056 -114.467156 76 3261ft 156kts
24-Jan-18 09:33 34.535664 -114.414938 46 1567ft 175kts
24-Jan-18 09:34 34.550757 -114.371395 135 1082ft 141kts
24-Jan-18 09:35 34.523690 -114.337504 77 1845ft 144kts
24-Jan-18 09:36 34.557061 -114.348094 328 958ft 112kts
24-Jan-18 09:37 34.569979 -114.357935 185 786ft 14kts
24-Jan-18 09:38 34.569837 -114.360013 245 786ft 18kts
24-Jan-18 09:39 34.569687 -114.362139 250 786ft 0kts
24-Jan-18 09:40 34.569687 -114.362139 250 786ft 0kts
24-Jan-18 09:41 34.569687 -114.362139 250 786ft 0kts
24-Jan-18 09:42 34.569687 -114.362139 250 786ft 0kts
24-Jan-18 09:43 34.569687 -114.362139 250 786ft 0kts
24-Jan-18 09:44 34.569687 -114.362139 250 786ft 0kts
24-Jan-18 09:45 34.569687 -114.362139 250 786ft 0kts
24-Jan-18 09:46 34.569687 -114.362139 250 786ft 0kts
24-Jan-18 09:47 34.569687 -114.362139 250 786ft 0kts
24-Jan-18 09:48 34.569687 -114.362139 250 786ft 0kts
24-Jan-18 09:49 34.569687 -114.362139 250 786ft 0kts
24-Jan-18 09:50 34.569687 -114.362139 250 786ft 0kts
24-Jan-18 09:51 34.569687 -114.362139 250 786ft 0kts

Navigation Log

Ident Type
Flight plan parsing failed, navigation log unavailable